Dursley Dozen
Skip Navigation Links
Results
Teams Results
Leaderboard
Dursley RC Races
Race Stats
11 Feb 2018
HyperLink
Click on your name for your detailed race data.
Page 1 of 10 (468 items)
[1]2345678910
Pos
Bib No
Fav
Share
Photo
Print
Name
Gun Time
Chip Time
Category
Cat Pos
Gender
Gen Pos
Club
Pace
17Dan ANDERSON1:23:48.91:23:48.0Top 31Male1DURSLEY RUNNING CLUB 8.6 m/hr
2185James EVERETT1:24:50.51:24:49.4Top 32Male2DURSLEY RUNNING CLUB 8.5 m/hr
3278Paul HORSFALL 1:28:23.41:28:21.8Top 33Male3GLOUCESTER AC 8.1 m/hr
492Simon BYRNE 1:28:30.51:28:28.9MSen1Male4SWINDON HARRIERS 8.1 m/hr
5570Tom WARD1:30:13.71:30:13.4M401Male5ALMOST ATHLETES 8.0 m/hr
6397Jon NEWEY1:30:42.31:30:40.8M451Male6BLACK PEAR JOGGERS 7.9 m/hr
771Tim BRITTON1:30:50.41:30:49.5MSen2Male7DURSLEY RUNNING CLUB 7.9 m/hr
8142Mike CROMPTON1:31:06.11:31:05.5MSen3Male8DURSLEY RUNNING CLUB 7.9 m/hr
9389Samuel MOPPETT1:31:20.31:31:20.3MSen4Male9  7.9 m/hr
10134Rob COWLARD1:31:26.01:31:25.7M402Male10THORNBURY RC 7.9 m/hr
11186Neil EVERETT1:31:26.61:31:25.1MSen5Male11YORK KNAVESMIRE HARRIERS 7.9 m/hr
12192Robert FORD1:31:36.51:31:36.2MSen6Male12PORTSMOUTH JOGGERS 7.9 m/hr
13536Tom SUTHERLAND1:32:40.41:32:37.9MSen7Male13  7.8 m/hr
14527Andrew STEPHENS 1:33:08.71:33:06.2M403Male14MONROSS TRAILBLAZERS 7.7 m/hr
1514Xander MACINNES1:33:57.21:33:52.1MJun1Male15DURSLEY RUNNING CLUB 7.7 m/hr
16163Toby DICKENS1:34:14.11:34:10.1MJun2Male16MONROSS TRAILBLAZERS 7.6 m/hr
17572Rob WATKINS1:34:34.81:34:33.3M452Male17THORNBURY RC 7.6 m/hr
18449Robert PRITCHARD1:35:27.81:35:25.2MSen8Male18MONROSS TRAILBLAZERS 7.5 m/hr
1942Neil BENNETT1:35:41.01:35:40.6MSen9Male19  7.5 m/hr
20477Benjamin ROSEDALE1:36:05.11:35:59.5M404Male20  7.5 m/hr
21555Jarek TURIF1:36:10.11:36:07.7MSen10Male21  7.5 m/hr
22393Miguel MUNDINANO1:36:21.41:36:19.9M453Male22CHELTENHAM AND COUNTY HARRIERS 7.5 m/hr
23406Martin O'CONNOR1:36:32.51:36:30.7MSen11Male23STROUD & DISTRICT AC 7.5 m/hr
24457Niki RADNEDGE 1:37:19.51:37:16.7M405Male24  7.4 m/hr
25486Dan SANDFORD1:37:48.11:37:45.7M406Male25FOREST OF DEAN AC 7.4 m/hr
26516Thomas SMITH1:37:52.01:37:48.0MSen12Male26  7.4 m/hr
27302Matt JOHNSTONE1:37:56.01:37:54.8M407Male27THORNBURY RC 7.4 m/hr
28128Jack COOPER1:38:33.21:38:31.7MSen13Male28  7.3 m/hr
2959Julian BOON1:38:58.91:38:57.0M454Male29FOREST OF DEAN AC 7.3 m/hr
30123Chris COND1:39:01.21:39:00.3M408Male30STRATFORD UPON AVON AC 7.3 m/hr
3158Matt BOND1:39:39.01:39:36.8M455Male31FOREST OF DEAN AC 7.2 m/hr
32271Paul HOCKING1:40:22.81:40:21.2M409Male32  7.2 m/hr
33328Ned LAMMAS1:40:39.71:40:35.9M501Male33EVESHAM VALE RUNNING CLUB 7.2 m/hr
34467Malcolm RITCHIE1:40:49.01:40:48.3M4010Male34  7.1 m/hr
3523Peter BALLINGER1:41:15.81:41:14.0M456Male35  7.1 m/hr
36388Ben MOPPETT1:41:22.11:41:21.4MSen14Male36  7.1 m/hr
37296Loz HEWISTON1:41:30.51:41:26.4M4011Male37BAD TRI 7.1 m/hr
38386Robyn JACKSON1:41:52.31:41:51.5Top 31Female1DURSLEY RUNNING CLUB 7.1 m/hr
39314Dave KELLY1:42:04.41:41:58.5M551Male38ALMOST ATHLETES 7.1 m/hr
40177James EASTWOOD1:42:20.81:42:19.2MSen15Male39ALMOST ATHLETES 7.0 m/hr
41122Guy COLLIS1:42:29.31:42:23.1MSen16Male40  7.0 m/hr
42529Samuel STONE1:42:35.51:42:28.5MSen17Male41EMERSONS GREEN RUNNING CLUB 7.0 m/hr
43468Dylan ROBERTS1:43:08.01:43:06.2MSen18Male42THORNBURY RC 7.0 m/hr
445Haydn SMITH1:43:14.21:43:10.0M4012Male43DURSLEY RUNNING CLUB 7.0 m/hr
45578Matthew WHEELER1:43:35.31:43:33.4M457Male44WESTON ATHLETIC CLUB 7.0 m/hr
46511Andrew SMALL1:43:58.61:43:56.2M458Male45EMERSONS GREEN RUNNING CLUB 6.9 m/hr
47249Chris HARRIS1:44:49.01:44:44.5M4013Male46BLACK PEAR JOGGERS 6.9 m/hr
4855Andrew BLACKBURN1:44:55.71:44:54.1M4014Male47  6.9 m/hr
49384Thomas MILLARD1:45:02.91:44:58.1M459Male48  6.9 m/hr
50258Matt HAZEL-LIVALL1:45:06.61:44:58.8MSen19Male49DURSLEY RUNNING CLUB 6.8 m/hr
Page 1 of 10 (468 items)
[1]2345678910
fb

HyperLink Copyright (c) G Vincent, 2018